EZY32AC EGCC-EDDF
Flight info
| Callsign | EZY32AC |
|---|---|
| Flight time | N/A |
| Altitude | 37000 |
| Route | SONEX1Y SONEX L975 DESIG L603 DOLAS DCT NAVPI DCT NOLRU DCT DIXAT DIXAT1A |
| Aircraft | A320/M-V/N |
Departure
| Time | 2026-05-04 18:28 |
|---|---|
| Airport | Manchester Airport (EGCC) |
Arrival
| Time | N/A |
|---|---|
| Airport | Frankfurt Main Airport (EDDF) |
| Time | Latitude | Longitude | Altitude | Speed | Heading |
|---|---|---|---|---|---|
| 2026-05-04 18:00 | 53.36693 | -2.28471 | 233 ft | 0 kts | 134° |
| 2026-05-04 18:16 | 53.36698 | -2.28481 | 233 ft | 4 kts | 136° |
| 2026-05-04 18:16 | 53.36719 | -2.28510 | 233 ft | 4 kts | 148° |
| 2026-05-04 18:17 | 53.36759 | -2.28520 | 235 ft | 1 kts | 223° |
| 2026-05-04 18:17 | 53.36762 | -2.28516 | 235 ft | 0 kts | 223° |
| 2026-05-04 18:20 | 53.36745 | -2.28543 | 235 ft | 10 kts | 224° |
| 2026-05-04 18:20 | 53.36709 | -2.28600 | 233 ft | 7 kts | 224° |
| 2026-05-04 18:21 | 53.36657 | -2.28687 | 233 ft | 13 kts | 229° |
| 2026-05-04 18:21 | 53.36630 | -2.28768 | 233 ft | 7 kts | 218° |
| 2026-05-04 18:21 | 53.36585 | -2.28758 | 233 ft | 10 kts | 143° |
| 2026-05-04 18:21 | 53.36516 | -2.28638 | 233 ft | 16 kts | 134° |
| 2026-05-04 18:22 | 53.36438 | -2.28508 | 233 ft | 16 kts | 135° |
| 2026-05-04 18:22 | 53.36378 | -2.28371 | 233 ft | 14 kts | 135° |
| 2026-05-04 18:22 | 53.36312 | -2.28261 | 233 ft | 13 kts | 135° |
| 2026-05-04 18:22 | 53.36254 | -2.28163 | 233 ft | 11 kts | 135° |
| 2026-05-04 18:23 | 53.36205 | -2.28079 | 233 ft | 9 kts | 134° |
| 2026-05-04 18:23 | 53.36162 | -2.28006 | 233 ft | 8 kts | 134° |
| 2026-05-04 18:23 | 53.36126 | -2.27945 | 233 ft | 7 kts | 135° |
| 2026-05-04 18:23 | 53.36072 | -2.27863 | 233 ft | 12 kts | 143° |
| 2026-05-04 18:24 | 53.35990 | -2.27763 | 233 ft | 19 kts | 139° |
| 2026-05-04 18:24 | 53.35891 | -2.27730 | 233 ft | 15 kts | 187° |
| 2026-05-04 18:24 | 53.35796 | -2.27702 | 234 ft | 14 kts | 132° |
| 2026-05-04 18:24 | 53.35713 | -2.27628 | 233 ft | 19 kts | 158° |
| 2026-05-04 18:25 | 53.35647 | -2.27559 | 233 ft | 6 kts | 142° |
| 2026-05-04 18:25 | 53.35620 | -2.27523 | 233 ft | 4 kts | 142° |
| 2026-05-04 18:25 | 53.35598 | -2.27495 | 233 ft | 3 kts | 141° |
| 2026-05-04 18:25 | 53.35517 | -2.27385 | 239 ft | 27 kts | 145° |
| 2026-05-04 18:26 | 53.35380 | -2.27209 | 234 ft | 20 kts | 152° |
| 2026-05-04 18:26 | 53.35250 | -2.27220 | 233 ft | 18 kts | 189° |
| 2026-05-04 18:26 | 53.35119 | -2.27260 | 233 ft | 20 kts | 191° |
| 2026-05-04 18:26 | 53.35003 | -2.27336 | 233 ft | 16 kts | 226° |
| 2026-05-04 18:27 | 53.34928 | -2.27484 | 233 ft | 19 kts | 230° |
| 2026-05-04 18:27 | 53.34759 | -2.27832 | 230 ft | 78 kts | 231° |
| 2026-05-04 18:27 | 53.34250 | -2.28898 | 232 ft | 152 kts | 231° |
| 2026-05-04 18:27 | 53.33495 | -2.30455 | 645 ft | 182 kts | 231° |
| 2026-05-04 18:28 | 53.32670 | -2.32208 | 1321 ft | 208 kts | 235° |
| 2026-05-04 18:28 | 53.31781 | -2.34436 | 1751 ft | 248 kts | 248° |
| 2026-05-04 18:28 | 53.31389 | -2.37362 | 2269 ft | 259 kts | 273° |
| 2026-05-04 18:28 | 53.31776 | -2.40127 | 2769 ft | 252 kts | 297° |
| 2026-05-04 18:29 | 53.32842 | -2.42385 | 3279 ft | 254 kts | 322° |
| 2026-05-04 18:29 | 53.34421 | -2.43708 | 3790 ft | 257 kts | 347° |
| 2026-05-04 18:29 | 53.36213 | -2.43860 | 4309 ft | 260 kts | 2° |
| 2026-05-04 18:29 | 53.38029 | -2.43726 | 4829 ft | 263 kts | 2° |
| 2026-05-04 18:30 | 53.41624 | -2.44592 | 5006 ft | 263 kts | 341° |
| 2026-05-04 18:30 | 53.43389 | -2.45446 | 5005 ft | 264 kts | 350° |
| 2026-05-04 18:30 | 53.45214 | -2.45361 | 5010 ft | 265 kts | 13° |
| 2026-05-04 18:31 | 53.46851 | -2.44122 | 5006 ft | 266 kts | 36° |
| 2026-05-04 18:31 | 53.48094 | -2.41845 | 5215 ft | 266 kts | 59° |
| 2026-05-04 18:31 | 53.48733 | -2.38901 | 5737 ft | 273 kts | 81° |
| 2026-05-04 18:31 | 53.48651 | -2.35706 | 6262 ft | 277 kts | 102° |
| 2026-05-04 18:32 | 53.48322 | -2.32512 | 6761 ft | 279 kts | 91° |
| 2026-05-04 18:32 | 53.48504 | -2.29262 | 7258 ft | 282 kts | 79° |
| 2026-05-04 18:32 | 53.48840 | -2.25999 | 7757 ft | 285 kts | 79° |
| 2026-05-04 18:32 | 53.49203 | -2.22704 | 8273 ft | 288 kts | 78° |
| 2026-05-04 18:33 | 53.49565 | -2.19424 | 8780 ft | 291 kts | 79° |
| 2026-05-04 18:33 | 53.49927 | -2.16065 | 9308 ft | 294 kts | 79° |
| 2026-05-04 18:33 | 53.50286 | -2.12667 | 9848 ft | 297 kts | 79° |
| 2026-05-04 18:33 | 53.50647 | -2.09225 | 10343 ft | 305 kts | 79° |
| 2026-05-04 18:34 | 53.51023 | -2.05618 | 10837 ft | 321 kts | 79° |
| 2026-05-04 18:34 | 53.51417 | -2.01845 | 11346 ft | 336 kts | 79° |
| 2026-05-04 18:34 | 53.51830 | -1.97920 | 11840 ft | 345 kts | 79° |
| 2026-05-04 18:34 | 53.52250 | -1.93916 | 12357 ft | 349 kts | 80° |
| 2026-05-04 18:35 | 53.52426 | -1.89839 | 12875 ft | 352 kts | 92° |
| 2026-05-04 18:35 | 53.52103 | -1.85738 | 13404 ft | 354 kts | 104° |
| 2026-05-04 18:35 | 53.51413 | -1.81752 | 13929 ft | 357 kts | 107° |
| 2026-05-04 18:35 | 53.50701 | -1.77745 | 14406 ft | 359 kts | 107° |
| 2026-05-04 18:36 | 53.49988 | -1.73715 | 14899 ft | 361 kts | 107° |
| 2026-05-04 18:36 | 53.49270 | -1.69652 | 15383 ft | 364 kts | 107° |
| 2026-05-04 18:36 | 53.48557 | -1.65623 | 15891 ft | 366 kts | 107° |
| 2026-05-04 18:36 | 53.47828 | -1.61516 | 16398 ft | 368 kts | 107° |
| 2026-05-04 18:37 | 53.47095 | -1.57387 | 16919 ft | 371 kts | 107° |
| 2026-05-04 18:37 | 53.46352 | -1.53224 | 17447 ft | 373 kts | 107° |
| 2026-05-04 18:37 | 53.45603 | -1.49035 | 17981 ft | 376 kts | 108° |
| 2026-05-04 18:37 | 53.44847 | -1.44819 | 18508 ft | 379 kts | 108° |
| 2026-05-04 18:38 | 53.44084 | -1.40578 | 18981 ft | 381 kts | 107° |
| 2026-05-04 18:38 | 53.43314 | -1.36313 | 19470 ft | 383 kts | 107° |
| 2026-05-04 18:38 | 53.42534 | -1.32019 | 19960 ft | 385 kts | 107° |
| 2026-05-04 18:38 | 53.41752 | -1.27720 | 20464 ft | 387 kts | 107° |
| 2026-05-04 18:39 | 53.40967 | -1.23380 | 20988 ft | 390 kts | 107° |
| 2026-05-04 18:39 | 53.40178 | -1.19014 | 21508 ft | 393 kts | 107° |
| 2026-05-04 18:39 | 53.39380 | -1.14613 | 22047 ft | 395 kts | 107° |
| 2026-05-04 18:39 | 53.38573 | -1.10200 | 22585 ft | 398 kts | 107° |
| 2026-05-04 18:40 | 53.37756 | -1.05757 | 23122 ft | 400 kts | 107° |
| 2026-05-04 18:40 | 53.36933 | -1.01293 | 23623 ft | 403 kts | 107° |
| 2026-05-04 18:40 | 53.36104 | -0.96799 | 24051 ft | 405 kts | 107° |
| 2026-05-04 18:40 | 53.35272 | -0.92290 | 24484 ft | 407 kts | 107° |
| 2026-05-04 18:41 | 53.34437 | -0.87757 | 24924 ft | 408 kts | 107° |
| 2026-05-04 18:41 | 53.33595 | -0.83207 | 25342 ft | 410 kts | 107° |
| 2026-05-04 18:41 | 53.32749 | -0.78643 | 25753 ft | 412 kts | 107° |
| 2026-05-04 18:41 | 53.31894 | -0.74053 | 26156 ft | 414 kts | 107° |
| 2026-05-04 18:42 | 53.31031 | -0.69453 | 26549 ft | 416 kts | 107° |
| 2026-05-04 18:42 | 53.30160 | -0.64820 | 26945 ft | 418 kts | 107° |
| 2026-05-04 18:42 | 53.29288 | -0.60172 | 27338 ft | 420 kts | 107° |
| 2026-05-04 18:42 | 53.28410 | -0.55497 | 27729 ft | 422 kts | 107° |
| 2026-05-04 18:43 | 53.27536 | -0.50873 | 28112 ft | 424 kts | 107° |
| 2026-05-04 18:43 | 53.26631 | -0.46103 | 28493 ft | 426 kts | 107° |
| 2026-05-04 18:43 | 53.25746 | -0.41435 | 28860 ft | 428 kts | 107° |
| 2026-05-04 18:43 | 53.24841 | -0.36681 | 29221 ft | 431 kts | 107° |
| 2026-05-04 18:44 | 53.23930 | -0.31905 | 29563 ft | 433 kts | 107° |
| 2026-05-04 18:44 | 53.23312 | -0.28665 | 29796 ft | 434 kts | 107° |
| 2026-05-04 18:44 | 53.22095 | -0.22285 | 30207 ft | 437 kts | 107° |
| 2026-05-04 18:44 | 53.21168 | -0.17440 | 30478 ft | 440 kts | 107° |
| 2026-05-04 18:45 | 53.20231 | -0.12568 | 30731 ft | 442 kts | 108° |
| 2026-05-04 18:45 | 53.19283 | -0.07683 | 30987 ft | 444 kts | 108° |
| 2026-05-04 18:45 | 53.18328 | -0.02775 | 31256 ft | 446 kts | 108° |
| 2026-05-04 18:45 | 53.17372 | 0.02150 | 31517 ft | 447 kts | 108° |
| 2026-05-04 18:46 | 53.16415 | 0.07080 | 31876 ft | 447 kts | 108° |
| 2026-05-04 18:46 | 53.15458 | 0.12005 | 32236 ft | 446 kts | 108° |
| 2026-05-04 18:46 | 53.14502 | 0.16918 | 32583 ft | 446 kts | 108° |
| 2026-05-04 18:46 | 53.13541 | 0.21825 | 32932 ft | 446 kts | 108° |
| 2026-05-04 18:47 | 53.12574 | 0.26731 | 33291 ft | 445 kts | 108° |
| 2026-05-04 18:47 | 53.11607 | 0.31626 | 33637 ft | 445 kts | 108° |
| 2026-05-04 18:47 | 53.10639 | 0.36519 | 33986 ft | 445 kts | 108° |
| 2026-05-04 18:47 | 53.09674 | 0.41406 | 34284 ft | 444 kts | 108° |
| 2026-05-04 18:48 | 53.08718 | 0.46233 | 34545 ft | 445 kts | 109° |
| 2026-05-04 18:48 | 53.07746 | 0.51118 | 34790 ft | 446 kts | 109° |
| 2026-05-04 18:48 | 53.06767 | 0.56025 | 35026 ft | 447 kts | 109° |
| 2026-05-04 18:48 | 53.05788 | 0.60921 | 35263 ft | 447 kts | 109° |
| 2026-05-04 18:49 | 53.04804 | 0.65832 | 35507 ft | 448 kts | 109° |
| 2026-05-04 18:49 | 53.03818 | 0.70744 | 35743 ft | 448 kts | 109° |
| 2026-05-04 18:49 | 53.02828 | 0.75658 | 35975 ft | 448 kts | 109° |
| 2026-05-04 18:49 | 53.01835 | 0.80565 | 36210 ft | 448 kts | 109° |
| 2026-05-04 18:50 | 53.00836 | 0.85482 | 36427 ft | 449 kts | 109° |
| 2026-05-04 18:50 | 52.99835 | 0.90392 | 36643 ft | 449 kts | 110° |
| 2026-05-04 18:50 | 52.98829 | 0.95299 | 36862 ft | 449 kts | 110° |
| 2026-05-04 18:50 | 52.97822 | 1.00215 | 37020 ft | 450 kts | 110° |
| 2026-05-04 18:51 | 52.96783 | 1.05113 | 37059 ft | 449 kts | 111° |
| 2026-05-04 18:51 | 52.94598 | 1.14802 | 37056 ft | 448 kts | 112° |
| 2026-05-04 18:52 | 52.92365 | 1.24448 | 37055 ft | 448 kts | 112° |
| 2026-05-04 18:52 | 52.90148 | 1.34115 | 37055 ft | 449 kts | 112° |
| 2026-05-04 18:53 | 52.87963 | 1.43725 | 37054 ft | 449 kts | 112° |
| 2026-05-04 18:53 | 52.85745 | 1.53388 | 37052 ft | 449 kts | 112° |
| 2026-05-04 18:54 | 52.83513 | 1.63041 | 37048 ft | 449 kts | 112° |
| 2026-05-04 18:54 | 52.81277 | 1.72689 | 37044 ft | 449 kts | 112° |
| 2026-05-04 18:55 | 52.79030 | 1.82331 | 37043 ft | 449 kts | 113° |
| 2026-05-04 18:55 | 52.75643 | 1.96775 | 37039 ft | 449 kts | 113° |
| 2026-05-04 18:56 | 52.73393 | 2.06322 | 37039 ft | 449 kts | 113° |
| 2026-05-04 18:56 | 52.71116 | 2.15930 | 37042 ft | 449 kts | 113° |
| 2026-05-04 18:57 | 52.68835 | 2.25539 | 37040 ft | 449 kts | 113° |
| 2026-05-04 18:57 | 52.66553 | 2.35141 | 37039 ft | 449 kts | 113° |
| 2026-05-04 18:58 | 52.64267 | 2.44657 | 37034 ft | 449 kts | 114° |
| 2026-05-04 18:58 | 52.61956 | 2.54233 | 37030 ft | 450 kts | 114° |
| 2026-05-04 18:59 | 52.59640 | 2.63780 | 37029 ft | 450 kts | 114° |
| 2026-05-04 18:59 | 52.57712 | 2.71731 | 37028 ft | 450 kts | 114° |
| 2026-05-04 19:00 | 52.55007 | 2.82828 | 37019 ft | 450 kts | 115° |
| 2026-05-04 19:00 | 52.52927 | 2.90662 | 37020 ft | 449 kts | 117° |
| 2026-05-04 19:01 | 52.50207 | 2.99897 | 37018 ft | 449 kts | 119° |
| 2026-05-04 19:01 | 52.47442 | 3.09088 | 37022 ft | 449 kts | 118° |
| 2026-05-04 19:02 | 52.44717 | 3.18303 | 37022 ft | 450 kts | 118° |
| 2026-05-04 19:02 | 52.42009 | 3.27572 | 37019 ft | 450 kts | 118° |
| 2026-05-04 19:03 | 52.39302 | 3.36804 | 37017 ft | 450 kts | 118° |
| 2026-05-04 19:03 | 52.36574 | 3.46027 | 37015 ft | 450 kts | 119° |
| 2026-05-04 19:04 | 52.33837 | 3.55224 | 37011 ft | 449 kts | 119° |
| 2026-05-04 19:04 | 52.31096 | 3.64409 | 37009 ft | 449 kts | 119° |
| 2026-05-04 19:05 | 52.28475 | 3.73172 | 37010 ft | 449 kts | 119° |
| 2026-05-04 19:05 | 52.25724 | 3.82336 | 37009 ft | 449 kts | 119° |
| 2026-05-04 19:06 | 52.22969 | 3.91476 | 37012 ft | 449 kts | 119° |
| 2026-05-04 19:06 | 52.20356 | 4.00126 | 37006 ft | 448 kts | 119° |
| 2026-05-04 19:07 | 52.17587 | 4.09231 | 36996 ft | 448 kts | 120° |
| 2026-05-04 19:07 | 52.14817 | 4.18306 | 36986 ft | 448 kts | 120° |
| 2026-05-04 19:08 | 52.12041 | 4.27383 | 36981 ft | 447 kts | 120° |
| 2026-05-04 19:08 | 52.09260 | 4.36417 | 36972 ft | 447 kts | 120° |
| 2026-05-04 19:09 | 52.06469 | 4.45467 | 36969 ft | 447 kts | 120° |
| 2026-05-04 19:09 | 52.03673 | 4.54488 | 36965 ft | 447 kts | 120° |
| 2026-05-04 19:10 | 52.00873 | 4.63487 | 36966 ft | 447 kts | 120° |
| 2026-05-04 19:10 | 51.98072 | 4.72495 | 36967 ft | 446 kts | 120° |
| 2026-05-04 19:11 | 51.95248 | 4.81448 | 36970 ft | 446 kts | 121° |
| 2026-05-04 19:11 | 51.92286 | 4.90193 | 36971 ft | 445 kts | 123° |
| 2026-05-04 19:12 | 51.87696 | 5.03277 | 36967 ft | 445 kts | 123° |
| 2026-05-04 19:13 | 51.84668 | 5.12017 | 36966 ft | 445 kts | 123° |
| 2026-05-04 19:13 | 51.81655 | 5.20753 | 36961 ft | 445 kts | 123° |
| 2026-05-04 19:14 | 51.78648 | 5.29401 | 36964 ft | 444 kts | 123° |
| 2026-05-04 19:14 | 51.75611 | 5.38102 | 36964 ft | 444 kts | 123° |
| 2026-05-04 19:15 | 51.72570 | 5.46787 | 36963 ft | 444 kts | 123° |
| 2026-05-04 19:15 | 51.69520 | 5.55474 | 36960 ft | 444 kts | 123° |
| 2026-05-04 19:16 | 51.66465 | 5.64157 | 36960 ft | 444 kts | 123° |
| 2026-05-04 19:16 | 51.63415 | 5.72804 | 36962 ft | 444 kts | 123° |
| 2026-05-04 19:17 | 51.60343 | 5.81442 | 36963 ft | 444 kts | 124° |
| 2026-05-04 19:17 | 51.58131 | 5.87505 | 36953 ft | 439 kts | 130° |
| 2026-05-04 19:18 | 51.54732 | 5.94849 | 36952 ft | 442 kts | 124° |
| 2026-05-04 19:18 | 51.52639 | 6.01414 | 36945 ft | 445 kts | 118° |
| 2026-05-04 19:19 | 51.49993 | 6.10406 | 36948 ft | 445 kts | 121° |
| 2026-05-04 19:19 | 51.47010 | 6.19093 | 36951 ft | 444 kts | 124° |
| 2026-05-04 19:20 | 51.43846 | 6.27575 | 36961 ft | 444 kts | 125° |
| 2026-05-04 19:20 | 51.40678 | 6.36072 | 36945 ft | 444 kts | 125° |
| 2026-05-04 19:21 | 51.37566 | 6.44611 | 36357 ft | 444 kts | 125° |
| 2026-05-04 19:21 | 51.36023 | 6.48876 | 35685 ft | 444 kts | 125° |
| 2026-05-04 19:21 | 51.34494 | 6.53087 | 35030 ft | 444 kts | 126° |
| 2026-05-04 19:21 | 51.33063 | 6.57022 | 34469 ft | 443 kts | 126° |
| 2026-05-04 19:22 | 51.31520 | 6.61251 | 34003 ft | 438 kts | 127° |
| 2026-05-04 19:22 | 51.29990 | 6.65433 | 33481 ft | 433 kts | 127° |
| 2026-05-04 19:22 | 51.28475 | 6.69565 | 32932 ft | 429 kts | 127° |
| 2026-05-04 19:22 | 51.26968 | 6.73655 | 32390 ft | 425 kts | 127° |
| 2026-05-04 19:23 | 51.25468 | 6.77706 | 31869 ft | 421 kts | 127° |
| 2026-05-04 19:23 | 51.23988 | 6.81706 | 31357 ft | 418 kts | 127° |
| 2026-05-04 19:23 | 51.22513 | 6.85695 | 30857 ft | 415 kts | 128° |
| 2026-05-04 19:23 | 51.21506 | 6.88406 | 30515 ft | 412 kts | 128° |
| 2026-05-04 19:24 | 51.20051 | 6.92313 | 30031 ft | 409 kts | 128° |
| 2026-05-04 19:24 | 51.18603 | 6.96201 | 29474 ft | 406 kts | 127° |
| 2026-05-04 19:24 | 51.17167 | 7.00054 | 28925 ft | 403 kts | 127° |
| 2026-05-04 19:24 | 51.15743 | 7.03871 | 28391 ft | 399 kts | 127° |
| 2026-05-04 19:25 | 51.14342 | 7.07622 | 27862 ft | 396 kts | 127° |
| 2026-05-04 19:25 | 51.12939 | 7.11379 | 27339 ft | 393 kts | 126° |
| 2026-05-04 19:25 | 51.11544 | 7.15109 | 26810 ft | 391 kts | 126° |
| 2026-05-04 19:25 | 51.10199 | 7.18689 | 26322 ft | 388 kts | 126° |
| 2026-05-04 19:26 | 51.08815 | 7.22357 | 25828 ft | 385 kts | 126° |
| 2026-05-04 19:26 | 51.07440 | 7.26002 | 25335 ft | 383 kts | 125° |
| 2026-05-04 19:26 | 51.05969 | 7.29495 | 24845 ft | 377 kts | 133° |
| 2026-05-04 19:26 | 51.04179 | 7.32478 | 24369 ft | 370 kts | 143° |
| 2026-05-04 19:27 | 51.02121 | 7.34871 | 23893 ft | 365 kts | 152° |
| 2026-05-04 19:27 | 50.99872 | 7.36808 | 22916 ft | 373 kts | 155° |
| 2026-05-04 19:27 | 50.97545 | 7.38715 | 22164 ft | 377 kts | 155° |
| 2026-05-04 19:27 | 50.95247 | 7.40587 | 21607 ft | 375 kts | 155° |
| 2026-05-04 19:28 | 50.92903 | 7.42495 | 21094 ft | 373 kts | 155° |
| 2026-05-04 19:28 | 50.90636 | 7.44343 | 20628 ft | 370 kts | 155° |
| 2026-05-04 19:28 | 50.88353 | 7.46204 | 20149 ft | 367 kts | 155° |
| 2026-05-04 19:28 | 50.86091 | 7.48051 | 19685 ft | 364 kts | 155° |
| 2026-05-04 19:29 | 50.83849 | 7.49887 | 19221 ft | 362 kts | 155° |
| 2026-05-04 19:29 | 50.81621 | 7.51711 | 18785 ft | 360 kts | 155° |
| 2026-05-04 19:29 | 50.79406 | 7.53521 | 18350 ft | 357 kts | 155° |
| 2026-05-04 19:29 | 50.77203 | 7.55316 | 17854 ft | 355 kts | 155° |
| 2026-05-04 19:30 | 50.75016 | 7.57100 | 17387 ft | 352 kts | 155° |
| 2026-05-04 19:30 | 50.72846 | 7.58866 | 16931 ft | 349 kts | 155° |
| 2026-05-04 19:30 | 50.70692 | 7.60614 | 16488 ft | 347 kts | 155° |
| 2026-05-04 19:30 | 50.68550 | 7.62353 | 16027 ft | 344 kts | 155° |
| 2026-05-04 19:31 | 50.66427 | 7.64071 | 15608 ft | 342 kts | 155° |
| 2026-05-04 19:31 | 50.64321 | 7.65771 | 15181 ft | 339 kts | 155° |
| 2026-05-04 19:31 | 50.62222 | 7.67467 | 14982 ft | 339 kts | 155° |
| 2026-05-04 19:31 | 50.60130 | 7.69152 | 14957 ft | 338 kts | 156° |
| 2026-05-04 19:32 | 50.58025 | 7.70844 | 14832 ft | 339 kts | 156° |
| 2026-05-04 19:32 | 50.55955 | 7.72511 | 14547 ft | 338 kts | 155° |
| 2026-05-04 19:32 | 50.53872 | 7.74191 | 14187 ft | 335 kts | 155° |
| 2026-05-04 19:32 | 50.51803 | 7.75857 | 13829 ft | 333 kts | 156° |
| 2026-05-04 19:33 | 50.49738 | 7.77517 | 13434 ft | 331 kts | 156° |
| 2026-05-04 19:33 | 50.47694 | 7.79157 | 13040 ft | 329 kts | 156° |
| 2026-05-04 19:33 | 50.46918 | 7.79778 | 12873 ft | 328 kts | 156° |
| 2026-05-04 19:33 | 50.45128 | 7.81213 | 12540 ft | 326 kts | 156° |
| 2026-05-04 19:34 | 50.44593 | 7.81643 | 12436 ft | 326 kts | 156° |
| 2026-05-04 19:34 | 50.43887 | 7.82246 | 12321 ft | 323 kts | 153° |
| 2026-05-04 19:34 | 50.42395 | 7.83676 | 12004 ft | 326 kts | 149° |
| 2026-05-04 19:34 | 50.40611 | 7.85722 | 11631 ft | 325 kts | 145° |
| 2026-05-04 19:35 | 50.38859 | 7.87939 | 11259 ft | 323 kts | 143° |
| 2026-05-04 19:35 | 50.37136 | 7.90191 | 10884 ft | 321 kts | 143° |
| 2026-05-04 19:35 | 50.35525 | 7.92611 | 10513 ft | 323 kts | 130° |
| 2026-05-04 19:35 | 50.34560 | 7.95795 | 10156 ft | 329 kts | 108° |
| 2026-05-04 19:36 | 50.34093 | 7.99318 | 9979 ft | 330 kts | 104° |
| 2026-05-04 19:36 | 50.33687 | 8.02802 | 9992 ft | 331 kts | 104° |
| 2026-05-04 19:36 | 50.33278 | 8.06347 | 9991 ft | 331 kts | 104° |
| 2026-05-04 19:36 | 50.32869 | 8.09894 | 9995 ft | 331 kts | 104° |
| 2026-05-04 19:37 | 50.32459 | 8.13444 | 9984 ft | 331 kts | 104° |
| 2026-05-04 19:37 | 50.32051 | 8.16982 | 9983 ft | 331 kts | 104° |
| 2026-05-04 19:37 | 50.31642 | 8.20525 | 9984 ft | 331 kts | 104° |
| 2026-05-04 19:37 | 50.31233 | 8.24078 | 9835 ft | 331 kts | 104° |
| 2026-05-04 19:38 | 50.30825 | 8.27606 | 9443 ft | 329 kts | 104° |
| 2026-05-04 19:38 | 50.30416 | 8.31110 | 9051 ft | 327 kts | 104° |
| 2026-05-04 19:38 | 50.30005 | 8.34588 | 8656 ft | 323 kts | 104° |
| 2026-05-04 19:38 | 50.29596 | 8.38022 | 8269 ft | 319 kts | 104° |
| 2026-05-04 19:39 | 50.29190 | 8.41402 | 7882 ft | 314 kts | 103° |
| 2026-05-04 19:39 | 50.28934 | 8.43603 | 7643 ft | 309 kts | 102° |
| 2026-05-04 19:39 | 50.28586 | 8.46877 | 7293 ft | 303 kts | 103° |
| 2026-05-04 19:39 | 50.28196 | 8.50096 | 6931 ft | 299 kts | 104° |
| 2026-05-04 19:40 | 50.27806 | 8.53245 | 6554 ft | 288 kts | 104° |
| 2026-05-04 19:40 | 50.27434 | 8.56258 | 6178 ft | 278 kts | 104° |
| 2026-05-04 19:40 | 50.27061 | 8.59204 | 5785 ft | 275 kts | 103° |
| 2026-05-04 19:40 | 50.26678 | 8.62118 | 5416 ft | 273 kts | 103° |
| 2026-05-04 19:41 | 50.26140 | 8.64926 | 5034 ft | 268 kts | 120° |
| 2026-05-04 19:41 | 50.25116 | 8.67263 | 4662 ft | 266 kts | 129° |
| 2026-05-04 19:41 | 50.23954 | 8.69556 | 4278 ft | 266 kts | 129° |
| 2026-05-04 19:41 | 50.22795 | 8.71789 | 4018 ft | 263 kts | 130° |
| 2026-05-04 19:42 | 50.21636 | 8.74007 | 4007 ft | 265 kts | 130° |
| 2026-05-04 19:42 | 50.20468 | 8.76237 | 4011 ft | 265 kts | 130° |
| 2026-05-04 19:42 | 50.19296 | 8.78469 | 4018 ft | 265 kts | 130° |
| 2026-05-04 19:42 | 50.18132 | 8.80684 | 4014 ft | 265 kts | 130° |
| 2026-05-04 19:43 | 50.17900 | 8.81124 | 4010 ft | 265 kts | 130° |